Time;durP1;ratioP1;P1;durP2;ratioP2;P2;SDS_P1;SDS_P2;PMS_P1;PMS_P2;Temp;Humidity;BMP_temperature;BMP_pressure;BME280_temperature;BME280_humidity;BME280_pressure;Samples;Min_cycle;Max_cycle;Signal;HPM_P1;HPM_P2
2022/05/03 00:01:43;;;;;;;;;;;;;;;13.38;59.82;97818.97;4980328;28;19933;-66
2022/05/03 00:04:36;;;;;;;;;;;;;;;13.16;60.62;97817.31;4978497;28;19930;-65
2022/05/03 00:07:29;;;;;;;;;;;;;;;13.11;60.97;97820.22;4980838;28;19925;-66
2022/05/03 00:10:01;;;;;;;;;;;;;;;13.13;60.86;97811.72;4979820;28;20014;-58
2022/05/03 00:12:30;;;;;;;;;;;;;;;13.34;59.66;97812.56;4977801;28;19980;-66
2022/05/03 00:15:00;;;;;;;;;;;;;;;13.19;60.25;97808.47;4979743;28;19930;-65
2022/05/03 00:17:28;;;;;;;;;;;;;;;13.32;60.18;97807.44;4979352;28;19930;-58
2022/05/03 00:19:56;;;;;;;;;;;;;;;13.42;59.15;97811.69;4974810;28;20383;-61
2022/05/03 00:22:24;;;;;;;;;;;;;;;13.42;59.32;97806.22;4981982;28;19926;-65
2022/05/03 00:24:54;;;;;;;;;;;;;;;13.26;59.53;97800.59;4974802;28;19969;-52
2022/05/03 00:27:24;;;;;;;;;;;;;;;13.26;59.81;97802.50;4981083;28;19937;-52
2022/05/03 00:29:52;;;;;;;;;;;;;;;13.06;60.24;97802.13;4983258;28;19930;-65
2022/05/03 00:32:26;;;;;;;;;;;;;;;12.94;60.65;97802.00;4978882;28;19930;-64
2022/05/03 00:34:54;;;;;;;;;;;;;;;13.00;60.60;97802.66;4975824;28;20342;-66
2022/05/03 00:37:22;;;;;;;;;;;;;;;13.03;60.59;97799.25;4977506;28;19930;-66
2022/05/03 00:39:50;;;;;;;;;;;;;;;13.09;60.42;97795.19;4981755;28;20259;-66
2022/05/03 00:42:20;;;;;;;;;;;;;;;13.01;60.80;97796.06;4982977;28;19972;-66
2022/05/03 00:44:59;;;;;;;;;;;;;;;13.22;59.72;97787.94;4972938;28;20282;-60
2022/05/03 00:47:32;;;;;;;;;;;;;;;13.20;59.91;97792.88;4981931;28;19937;-62
2022/05/03 00:50:03;;;;;;;;;;;;;;;13.07;60.30;97790.09;4996967;28;19984;-61
2022/05/03 00:52:55;;;;;;;;;;;;;;;12.95;60.74;97798.19;4974684;28;19969;-66
2022/05/03 00:55:29;;;;;;;;;;;;;;;12.95;60.63;97790.00;4976351;28;19925;-65
2022/05/03 00:58:02;;;;;;;;;;;;;;;12.94;60.84;97790.31;4980753;28;20493;-66
2022/05/03 01:00:30;;;;;;;;;;;;;;;13.03;60.03;97782.88;4977068;28;19933;-66
2022/05/03 01:03:02;;;;;;;;;;;;;;;12.98;60.66;97788.53;4975245;28;19930;-64
2022/05/03 01:05:32;;;;;;;;;;;;;;;12.72;61.32;97791.38;4974751;28;19926;-68
2022/05/03 01:08:04;;;;;;;;;;;;;;;12.70;61.63;97790.94;4977846;28;19969;-65
2022/05/03 01:10:33;;;;;;;;;;;;;;;12.68;61.70;97782.28;4974124;28;19929;-62
2022/05/03 01:13:03;;;;;;;;;;;;;;;12.72;61.25;97785.94;4974200;28;19926;-55
2022/05/03 01:15:56;;;;;;;;;;;;;;;12.72;61.30;97777.75;4980529;28;20021;-66
2022/05/03 01:18:27;;;;;;;;;;;;;;;12.75;61.28;97777.91;4974863;28;19957;-63
2022/05/03 01:21:00;;;;;;;;;;;;;;;12.66;61.45;97789.97;4975154;28;19926;-65
2022/05/03 01:23:44;;;;;;;;;;;;;;;12.67;61.27;97788.84;4980334;28;19980;-62
2022/05/03 01:26:22;;;;;;;;;;;;;;;12.73;60.82;97782.06;4980140;28;20233;-65
2022/05/03 01:28:56;;;;;;;;;;;;;;;12.55;61.09;97790.34;4972827;28;19957;-65
2022/05/03 01:31:23;;;;;;;;;;;;;;;12.75;60.65;97788.03;4975524;28;20497;-64
2022/05/03 01:33:51;;;;;;;;;;;;;;;12.56;61.14;97789.22;4976542;28;19933;-63
2022/05/03 01:36:21;;;;;;;;;;;;;;;12.65;60.81;97791.13;4978081;28;20024;-66
2022/05/03 01:39:00;;;;;;;;;;;;;;;12.65;61.14;97793.84;4974849;28;19973;-66
2022/05/03 01:41:29;;;;;;;;;;;;;;;12.69;60.97;97781.16;4978478;28;19977;-64
2022/05/03 01:44:07;;;;;;;;;;;;;;;12.70;60.70;97794.44;4970823;28;20411;-65
2022/05/03 01:46:36;;;;;;;;;;;;;;;12.73;60.53;97784.81;4980460;28;20441;-66
2022/05/03 01:51:58;;;;;;;;;;;;;;;12.61;61.02;97779.25;4978099;28;19956;-62
2022/05/03 01:55:27;;;;;;;;;;;;;;;12.47;61.27;97782.22;4978744;28;19937;-66
2022/05/03 01:57:59;;;;;;;;;;;;;;;12.49;61.09;97779.94;4981514;28;20645;-58
2022/05/03 02:00:29;;;;;;;;;;;;;;;12.58;60.62;97781.53;4972242;28;20032;-66
2022/05/03 02:03:03;;;;;;;;;;;;;;;12.55;60.99;97775.91;4976748;28;19961;-66
2022/05/03 02:05:36;;;;;;;;;;;;;;;12.59;60.90;97777.66;4972777;28;19933;-66
2022/05/03 02:08:04;;;;;;;;;;;;;;;12.51;61.15;97775.75;4977842;28;20021;-66
2022/05/03 02:10:47;;;;;;;;;;;;;;;12.29;61.83;97779.53;4992334;28;19950;-60
2022/05/03 02:13:20;;;;;;;;;;;;;;;12.23;62.05;97780.84;4977078;28;20385;-65
2022/05/03 02:15:59;;;;;;;;;;;;;;;12.30;61.68;97774.88;4976406;28;20022;-65
2022/05/03 02:18:30;;;;;;;;;;;;;;;12.28;62.07;97771.69;4976490;28;19953;-66
2022/05/03 02:21:14;;;;;;;;;;;;;;;12.32;61.67;97778.09;4973556;28;19934;-65
2022/05/03 02:23:53;;;;;;;;;;;;;;;12.35;61.58;97780.16;4978216;28;20549;-66
2022/05/03 02:26:28;;;;;;;;;;;;;;;12.44;61.43;97775.47;4975594;28;19930;-66
2022/05/03 02:28:56;;;;;;;;;;;;;;;12.41;61.61;97778.88;4976976;28;19941;-65
2022/05/03 02:31:31;;;;;;;;;;;;;;;12.47;61.53;97780.28;4973232;28;19930;-64
2022/05/03 02:34:02;;;;;;;;;;;;;;;12.26;62.21;97776.69;4980862;28;20365;-66
2022/05/03 02:36:29;;;;;;;;;;;;;;;12.37;61.47;97775.19;4982305;28;19935;-66
2022/05/03 02:38:59;;;;;;;;;;;;;;;12.21;62.06;97776.84;4971817;28;20445;-63
2022/05/03 02:41:28;;;;;;;;;;;;;;;12.24;62.25;97776.97;4971265;28;19930;-65
2022/05/03 02:43:57;;;;;;;;;;;;;;;12.37;61.43;97774.41;4977019;28;19934;-62
2022/05/03 02:46:32;;;;;;;;;;;;;;;12.17;62.11;97770.44;4982837;28;19980;-66
2022/05/03 02:49:02;;;;;;;;;;;;;;;12.09;62.58;97769.38;4981414;28;20579;-66
2022/05/03 02:51:31;;;;;;;;;;;;;;;12.36;61.92;97775.50;4991346;28;20349;-66
2022/05/03 02:54:00;;;;;;;;;;;;;;;12.35;61.71;97768.47;4982738;28;19934;-66
2022/05/03 02:56:30;;;;;;;;;;;;;;;12.20;62.40;97767.88;4979323;28;20398;-66
2022/05/03 02:59:04;;;;;;;;;;;;;;;12.19;62.47;97770.91;4977788;28;20438;-65
2022/05/03 03:01:48;;;;;;;;;;;;;;;12.50;61.72;97768.72;4979595;28;19926;-66
2022/05/03 03:04:22;;;;;;;;;;;;;;;12.47;61.38;97766.66;4977695;28;19926;-62
2022/05/03 03:07:16;;;;;;;;;;;;;;;12.61;61.12;97768.34;4980845;28;19988;-65
2022/05/03 03:09:45;;;;;;;;;;;;;;;12.56;61.04;97761.97;4978212;28;19926;-66
2022/05/03 03:12:16;;;;;;;;;;;;;;;12.70;60.62;97758.22;4978762;28;19933;-66
2022/05/03 03:14:48;;;;;;;;;;;;;;;12.45;61.19;97768.09;4979021;28;20385;-66
2022/05/03 03:17:19;;;;;;;;;;;;;;;12.39;61.57;97767.47;4977788;28;19933;-66
2022/05/03 03:20:04;;;;;;;;;;;;;;;12.54;61.23;97757.97;4984369;28;20346;-58
2022/05/03 03:22:36;;;;;;;;;;;;;;;12.51;61.10;97764.88;4979577;28;19933;-66
2022/05/03 03:25:08;;;;;;;;;;;;;;;12.52;61.13;97762.97;4980851;28;19929;-56
2022/05/03 03:27:39;;;;;;;;;;;;;;;12.33;61.72;97766.06;4980380;28;19934;-66
2022/05/03 03:30:08;;;;;;;;;;;;;;;12.27;61.98;97764.66;4986646;28;19930;-66
2022/05/03 03:32:39;;;;;;;;;;;;;;;12.19;62.35;97762.75;4979394;28;19926;-66
2022/05/03 03:35:07;;;;;;;;;;;;;;;12.15;62.37;97768.06;4978922;28;19925;-66
2022/05/03 03:37:36;;;;;;;;;;;;;;;12.13;62.61;97764.03;4980425;28;19930;-66
2022/05/03 03:40:04;;;;;;;;;;;;;;;12.13;62.95;97759.41;4978500;28;20382;-66
2022/05/03 03:42:32;;;;;;;;;;;;;;;12.24;62.34;97763.38;4980264;28;20349;-66
2022/05/03 03:45:00;;;;;;;;;;;;;;;12.46;62.02;97761.53;4980934;28;20804;-66
2022/05/03 03:47:28;;;;;;;;;;;;;;;12.52;61.49;97766.50;4978104;28;20223;-57
2022/05/03 03:49:59;;;;;;;;;;;;;;;12.56;61.34;97756.50;4976423;28;20433;-66
2022/05/03 03:52:29;;;;;;;;;;;;;;;12.48;61.46;97760.09;4978466;28;20399;-66
2022/05/03 03:54:57;;;;;;;;;;;;;;;12.26;62.38;97757.63;4981382;28;19926;-66
2022/05/03 03:57:30;;;;;;;;;;;;;;;12.28;62.27;97766.25;4976428;28;19937;-66
2022/05/03 03:59:59;;;;;;;;;;;;;;;12.20;62.55;97754.25;4975350;28;19966;-66
2022/05/03 04:02:30;;;;;;;;;;;;;;;12.20;62.46;97758.91;4974959;28;20032;-59
2022/05/03 04:05:00;;;;;;;;;;;;;;;12.11;63.20;97752.69;4975501;28;19930;-66
2022/05/03 04:07:29;;;;;;;;;;;;;;;11.97;63.19;97750.94;4981840;28;19937;-58
2022/05/03 04:09:57;;;;;;;;;;;;;;;11.97;63.39;97750.94;4978534;28;19936;-62
2022/05/03 04:12:29;;;;;;;;;;;;;;;11.91;63.55;97760.41;4972157;28;19930;-66
2022/05/03 04:14:58;;;;;;;;;;;;;;;12.11;63.29;97760.84;4975711;28;20374;-65
2022/05/03 04:17:26;;;;;;;;;;;;;;;12.14;63.19;97760.19;4977781;28;19926;-66
2022/05/03 04:19:54;;;;;;;;;;;;;;;12.07;63.33;97766.94;4980509;28;19973;-60
2022/05/03 04:22:26;;;;;;;;;;;;;;;12.12;63.36;97762.44;4985023;28;19926;-65
2022/05/03 04:24:54;;;;;;;;;;;;;;;12.28;62.59;97766.25;4980172;28;20190;-65
2022/05/03 04:27:23;;;;;;;;;;;;;;;12.37;62.47;97767.03;4980550;28;19992;-52
2022/05/03 04:29:52;;;;;;;;;;;;;;;12.38;62.47;97770.53;4981214;28;20445;-65
2022/05/03 04:32:21;;;;;;;;;;;;;;;12.18;63.26;97772.03;4983992;28;19930;-65
2022/05/03 04:34:49;;;;;;;;;;;;;;;12.15;63.45;97773.50;4977850;28;19933;-66
2022/05/03 04:37:17;;;;;;;;;;;;;;;11.95;63.67;97774.19;4980277;28;19925;-67
2022/05/03 04:39:47;;;;;;;;;;;;;;;11.96;63.80;97776.56;4982514;28;19927;-65
2022/05/03 04:42:15;;;;;;;;;;;;;;;12.20;63.29;97777.97;4992507;28;20060;-65
2022/05/03 04:44:43;;;;;;;;;;;;;;;12.07;63.37;97771.59;4979992;28;19930;-65
2022/05/03 04:47:10;;;;;;;;;;;;;;;11.96;63.63;97786.66;4985462;28;20355;-65
2022/05/03 04:49:38;;;;;;;;;;;;;;;12.16;63.54;97785.19;4979891;28;20361;-66
2022/05/03 04:52:32;;;;;;;;;;;;;;;12.18;63.15;97783.72;4975291;28;20020;-63
2022/05/03 04:55:01;;;;;;;;;;;;;;;12.01;63.64;97781.84;4975855;28;19926;-63
2022/05/03 04:57:31;;;;;;;;;;;;;;;12.09;63.66;97788.41;4983107;28;19992;-65
2022/05/03 04:59:59;;;;;;;;;;;;;;;12.32;62.79;97794.44;4977818;28;20307;-65
2022/05/03 05:02:32;;;;;;;;;;;;;;;12.44;62.42;97794.56;4975579;28;19961;-65
2022/05/03 05:05:00;;;;;;;;;;;;;;;12.19;62.61;97793.50;4976087;28;20420;-66
2022/05/03 05:07:28;;;;;;;;;;;;;;;12.32;62.74;97795.25;4973941;28;19929;-67
2022/05/03 05:12:42;;;;;;;;;;;;;;;12.07;63.76;97802.34;4971598;28;19980;-67
2022/05/03 05:15:11;;;;;;;;;;;;;;;12.06;63.92;97802.66;4981972;28;19965;-68
2022/05/03 05:17:39;;;;;;;;;;;;;;;12.51;62.82;97803.00;4977159;28;19929;-65
2022/05/03 05:20:07;;;;;;;;;;;;;;;12.69;62.02;97800.25;4975034;28;19988;-65
2022/05/03 05:22:36;;;;;;;;;;;;;;;12.61;61.94;97810.03;4976448;28;20444;-60
2022/05/03 05:25:03;;;;;;;;;;;;;;;12.89;61.22;97804.13;4985170;28;19929;-60
2022/05/03 05:27:31;;;;;;;;;;;;;;;12.91;60.87;97805.41;4975105;28;20024;-59
2022/05/03 05:30:01;;;;;;;;;;;;;;;13.05;60.34;97808.72;4977262;28;20553;-60
2022/05/03 05:32:28;;;;;;;;;;;;;;;12.99;60.50;97809.22;4975779;28;19953;-59
2022/05/03 05:34:57;;;;;;;;;;;;;;;12.39;62.31;97805.63;4977192;28;20474;-59
2022/05/03 05:37:27;;;;;;;;;;;;;;;12.91;60.96;97799.97;4974247;28;19938;-58
2022/05/03 05:42:49;;;;;;;;;;;;;;;13.53;59.28;97810.19;4979570;28;19989;-60
2022/05/03 05:45:22;;;;;;;;;;;;;;;13.12;60.31;97810.91;4979039;28;20302;-59
2022/05/03 05:47:50;;;;;;;;;;;;;;;13.40;59.62;97805.78;4979329;28;19926;-59
2022/05/03 05:50:20;;;;;;;;;;;;;;;13.52;59.38;97805.84;4979260;28;19945;-60
2022/05/03 05:55:33;;;;;;;;;;;;;;;13.75;59.17;97816.44;4982702;28;19934;-58
2022/05/03 05:58:01;;;;;;;;;;;;;;;13.83;58.49;97813.63;4980181;28;19981;-58
2022/05/03 06:00:31;;;;;;;;;;;;;;;13.54;59.19;97819.19;4976756;28;19984;-60
2022/05/03 06:02:58;;;;;;;;;;;;;;;13.48;59.71;97821.31;4976844;28;20029;-61
2022/05/03 06:05:27;;;;;;;;;;;;;;;13.57;59.46;97822.03;4981176;28;20012;-60
2022/05/03 06:07:55;;;;;;;;;;;;;;;13.78;59.10;97821.22;4981968;28;20268;-58
2022/05/03 06:10:24;;;;;;;;;;;;;;;13.97;57.93;97818.81;4980024;28;19933;-56
2022/05/03 06:12:53;;;;;;;;;;;;;;;13.89;58.06;97822.41;4977844;28;19933;-60
2022/05/03 06:15:20;;;;;;;;;;;;;;;14.03;57.72;97822.13;4981864;28;19973;-59
2022/05/03 06:18:14;;;;;;;;;;;;;;;14.18;57.83;97824.25;4982449;28;19952;-57
2022/05/03 06:20:42;;;;;;;;;;;;;;;13.83;58.55;97829.22;4971943;28;20249;-60
2022/05/03 06:23:18;;;;;;;;;;;;;;;14.07;57.61;97828.53;4982317;28;19930;-60
2022/05/03 06:25:47;;;;;;;;;;;;;;;14.14;57.92;97824.09;4982086;28;19929;-58
2022/05/03 06:28:15;;;;;;;;;;;;;;;14.24;57.28;97833.03;4980706;28;19949;-58
2022/05/03 06:30:42;;;;;;;;;;;;;;;14.39;56.79;97827.72;4976797;28;20345;-57
2022/05/03 06:33:35;;;;;;;;;;;;;;;14.61;56.68;97814.78;4979541;28;19925;-57
2022/05/03 06:36:11;;;;;;;;;;;;;;;14.46;57.01;97820.88;4977890;28;19953;-58
2022/05/03 06:38:39;;;;;;;;;;;;;;;14.68;56.31;97824.03;4975791;28;19933;-58
2022/05/03 06:41:09;;;;;;;;;;;;;;;14.62;57.20;97832.78;4974214;28;19926;-58
2022/05/03 06:43:37;;;;;;;;;;;;;;;14.70;57.08;97828.34;4975164;28;19934;-58
2022/05/03 06:46:09;;;;;;;;;;;;;;;14.88;56.59;97827.00;4974043;28;19937;-58
2022/05/03 06:48:38;;;;;;;;;;;;;;;14.72;57.75;97828.81;4975613;28;20013;-59
2022/05/03 06:51:09;;;;;;;;;;;;;;;14.70;56.71;97834.63;4976667;28;19926;-58
2022/05/03 06:53:37;;;;;;;;;;;;;;;14.61;56.37;97840.19;4973510;28;20522;-57
2022/05/03 06:56:07;;;;;;;;;;;;;;;14.61;56.67;97837.47;4978530;28;19932;-58
2022/05/03 06:58:35;;;;;;;;;;;;;;;14.63;56.02;97831.66;4975432;28;20025;-58
2022/05/03 07:01:09;;;;;;;;;;;;;;;14.58;56.27;97832.66;4977114;28;19930;-58
2022/05/03 07:03:39;;;;;;;;;;;;;;;14.52;56.21;97828.56;4976063;28;19960;-58
2022/05/03 07:06:08;;;;;;;;;;;;;;;14.56;56.01;97834.16;4979335;28;20109;-58
2022/05/03 07:11:28;;;;;;;;;;;;;;;14.41;56.30;97838.28;4972577;28;19941;-58
2022/05/03 07:13:56;;;;;;;;;;;;;;;14.48;55.97;97838.56;4978387;28;19926;-58
2022/05/03 07:16:24;;;;;;;;;;;;;;;14.48;55.88;97833.09;4975635;28;19941;-58
2022/05/03 07:24:24;;;;;;;;;;;;;;;14.66;56.47;97842.72;4977374;28;20297;-58
2022/05/03 07:26:52;;;;;;;;;;;;;;;14.84;55.95;97847.97;4973283;28;19930;-58
2022/05/03 07:29:20;;;;;;;;;;;;;;;14.68;55.90;97840.44;4980329;28;19930;-59
2022/05/03 07:31:48;;;;;;;;;;;;;;;15.09;54.96;97843.31;4978940;28;19934;-59
2022/05/03 07:37:09;;;;;;;;;;;;;;;15.16;54.87;97847.06;4977414;28;19932;-58
2022/05/03 07:39:37;;;;;;;;;;;;;;;15.10;54.59;97844.91;4979759;28;19929;-59
2022/05/03 07:42:06;;;;;;;;;;;;;;;15.27;54.22;97843.88;4975898;28;19977;-58
2022/05/03 07:44:34;;;;;;;;;;;;;;;14.99;54.50;97847.31;4969333;28;19981;-57
2022/05/03 07:47:02;;;;;;;;;;;;;;;15.04;55.38;97849.81;4974166;28;19936;-58
2022/05/03 07:49:31;;;;;;;;;;;;;;;15.14;55.08;97849.34;4979258;28;19938;-58
2022/05/03 07:51:59;;;;;;;;;;;;;;;15.14;54.91;97852.09;4982565;28;19929;-58
2022/05/03 07:54:27;;;;;;;;;;;;;;;15.32;54.68;97854.59;4978681;28;20391;-58
2022/05/03 07:56:55;;;;;;;;;;;;;;;15.24;54.27;97855.53;4976537;28;19972;-58
2022/05/03 07:59:25;;;;;;;;;;;;;;;15.15;54.89;97856.41;4977328;28;20421;-57
2022/05/03 08:01:54;;;;;;;;;;;;;;;15.28;54.77;97859.16;4992074;28;20300;-58
2022/05/03 08:04:23;;;;;;;;;;;;;;;15.53;53.91;97862.66;4975951;28;19981;-55
2022/05/03 08:06:52;;;;;;;;;;;;;;;15.64;52.92;97861.06;4980137;28;19926;-58
2022/05/03 08:09:20;;;;;;;;;;;;;;;15.84;52.84;97865.59;4976345;28;19929;-58
2022/05/03 08:11:48;;;;;;;;;;;;;;;15.63;52.76;97871.22;4980037;28;19926;-57
2022/05/03 08:14:16;;;;;;;;;;;;;;;15.45;53.38;97864.41;4981276;28;20654;-57
2022/05/03 08:16:43;;;;;;;;;;;;;;;15.69;51.88;97866.31;4976725;28;19926;-57
2022/05/03 08:19:11;;;;;;;;;;;;;;;15.60;53.18;97866.41;4975969;28;20000;-57
2022/05/03 08:21:39;;;;;;;;;;;;;;;15.78;52.37;97866.19;4976171;28;19930;-59
2022/05/03 08:24:10;;;;;;;;;;;;;;;16.03;51.89;97866.91;4973985;28;19941;-57
2022/05/03 08:26:37;;;;;;;;;;;;;;;16.20;50.58;97870.16;4978386;28;19941;-57
2022/05/03 08:29:31;;;;;;;;;;;;;;;16.40;50.96;97865.59;4977786;28;20291;-58
2022/05/03 08:32:00;;;;;;;;;;;;;;;16.24;51.64;97870.25;4979695;28;20401;-57
2022/05/03 08:34:28;;;;;;;;;;;;;;;16.43;50.44;97864.91;4975045;28;19930;-56
2022/05/03 08:42:33;;;;;;;;;;;;;;;16.47;50.51;97876.78;4977645;28;19997;-57
2022/05/03 08:45:01;;;;;;;;;;;;;;;16.81;49.91;97873.75;4978296;28;19989;-55
2022/05/03 08:47:29;;;;;;;;;;;;;;;16.82;49.62;97865.16;4974806;28;19930;-57
2022/05/03 08:49:58;;;;;;;;;;;;;;;17.01;48.91;97868.00;4979909;28;19945;-58
2022/05/03 08:55:19;;;;;;;;;;;;;;;16.96;49.40;97864.72;4980161;28;20382;-57
2022/05/03 08:57:47;;;;;;;;;;;;;;;17.10;48.75;97870.56;4976493;28;20387;-57
2022/05/03 09:00:15;;;;;;;;;;;;;;;16.50;49.35;97859.59;4978956;28;20577;-59
2022/05/03 09:02:43;;;;;;;;;;;;;;;17.01;49.25;97868.00;4972116;28;19930;-59
2022/05/03 09:05:12;;;;;;;;;;;;;;;17.47;49.05;97865.56;4976911;28;19926;-57
2022/05/03 09:07:40;;;;;;;;;;;;;;;17.33;49.27;97867.97;4975062;28;19937;-57
2022/05/03 09:10:19;;;;;;;;;;;;;;;17.40;49.43;97870.09;4978329;28;19933;-58
2022/05/03 09:12:49;;;;;;;;;;;;;;;17.48;48.63;97864.41;4973615;28;19934;-58
2022/05/03 09:15:17;;;;;;;;;;;;;;;17.55;47.87;97872.00;4976086;28;20308;-57
2022/05/03 09:17:47;;;;;;;;;;;;;;;17.72;47.49;97870.81;4979421;28;19926;-57
2022/05/03 09:23:46;;;;;;;;;;;;;;;17.82;47.65;97867.53;4978743;28;19926;-57
2022/05/03 09:25:54;;;;;;;;;;;;;;;17.88;46.88;97865.28;4987772;28;19937;-58
2022/05/03 09:28:22;;;;;;;;;;;;;;;18.03;46.77;97865.22;4965264;28;19934;-57
2022/05/03 09:30:51;;;;;;;;;;;;;;;17.96;46.21;97865.09;4961059;28;19926;-57
2022/05/03 09:33:20;;;;;;;;;;;;;;;18.04;45.92;97868.78;4983752;28;19938;-57
2022/05/03 09:35:49;;;;;;;;;;;;;;;18.30;45.91;97871.66;4977963;28;19933;-58
2022/05/03 09:38:17;;;;;;;;;;;;;;;18.12;46.08;97870.53;4980198;28;20386;-58
2022/05/03 09:40:46;;;;;;;;;;;;;;;18.03;46.23;97869.94;4980111;28;19938;-57
2022/05/03 09:43:16;;;;;;;;;;;;;;;18.45;46.00;97867.25;4980423;28;19926;-58
2022/05/03 09:45:44;;;;;;;;;;;;;;;18.41;46.15;97865.59;4973443;28;19930;-57
2022/05/03 09:48:11;;;;;;;;;;;;;;;18.30;46.39;97868.91;4975110;28;19926;-58
2022/05/03 09:50:41;;;;;;;;;;;;;;;18.14;46.97;97868.19;4973842;28;19957;-57
2022/05/03 09:53:14;;;;;;;;;;;;;;;18.51;46.31;97865.78;4975143;28;20449;-58
2022/05/03 09:55:44;;;;;;;;;;;;;;;18.54;46.22;97864.28;4976539;28;20166;-55
2022/05/03 09:58:12;;;;;;;;;;;;;;;18.68;46.15;97855.50;4973851;28;20041;-58
2022/05/03 10:00:42;;;;;;;;;;;;;;;18.74;45.81;97857.56;4988283;28;19985;-57
2022/05/03 10:03:10;;;;;;;;;;;;;;;19.01;45.23;97854.88;4971996;28;20403;-57
2022/05/03 10:05:39;;;;;;;;;;;;;;;19.24;45.00;97854.88;4971984;28;20276;-57
2022/05/03 10:08:07;;;;;;;;;;;;;;;18.91;44.84;97850.00;4973701;28;19925;-57
2022/05/03 10:10:35;;;;;;;;;;;;;;;18.78;45.70;97855.69;4973462;28;19930;-58
2022/05/03 10:13:04;;;;;;;;;;;;;;;18.79;45.74;97846.25;4970775;28;19929;-58
2022/05/03 10:21:11;;;;;;;;;;;;;;;18.87;45.92;97833.44;4971415;28;19999;-57
2022/05/03 10:23:39;;;;;;;;;;;;;;;19.21;44.78;97828.06;4975489;28;19937;-59
2022/05/03 10:26:10;;;;;;;;;;;;;;;19.23;44.71;97829.31;4981099;28;19929;-57
2022/05/03 10:28:53;;;;;;;;;;;;;;;19.10;45.33;97833.41;4974379;28;20398;-57
2022/05/03 10:31:25;;;;;;;;;;;;;;;19.11;44.56;97829.47;4974412;28;20363;-58
2022/05/03 10:33:55;;;;;;;;;;;;;;;19.08;43.89;97827.47;4981118;28;19941;-56
2022/05/03 10:36:42;;;;;;;;;;;;;;;19.02;45.05;97823.47;4975146;28;20028;-56
2022/05/03 10:39:20;;;;;;;;;;;;;;;19.18;44.44;97821.34;4973164;28;20104;-59
2022/05/03 10:41:56;;;;;;;;;;;;;;;19.14;44.36;97825.22;4975553;28;19925;-58
2022/05/03 10:44:41;;;;;;;;;;;;;;;19.31;43.81;97814.44;4975653;28;19933;-57
2022/05/03 10:47:09;;;;;;;;;;;;;;;19.47;43.61;97807.97;4970256;28;19930;-57
2022/05/03 10:49:52;;;;;;;;;;;;;;;19.59;43.05;97807.78;4976649;28;19969;-57
2022/05/03 10:52:24;;;;;;;;;;;;;;;19.47;43.72;97795.00;4971966;28;19930;-57
2022/05/03 10:55:06;;;;;;;;;;;;;;;19.81;43.68;97797.81;4983122;28;20413;-55
2022/05/03 11:00:40;;;;;;;;;;;;;;;19.08;44.05;97798.00;4973992;28;20391;-56
2022/05/03 11:03:18;;;;;;;;;;;;;;;19.02;44.79;97804.97;4978891;28;19933;-57
2022/05/03 11:06:30;;;;;;;;;;;;;;;18.88;44.54;97807.50;4980738;28;20069;-57
2022/05/03 11:09:09;;;;;;;;;;;;;;;18.84;44.73;97790.91;4989841;28;19936;-57
2022/05/03 11:11:50;;;;;;;;;;;;;;;18.84;44.66;97785.41;4969669;28;20036;-56
2022/05/03 11:14:37;;;;;;;;;;;;;;;18.93;45.31;97778.84;4975643;28;19972;-55
2022/05/03 11:17:30;;;;;;;;;;;;;;;19.19;43.85;97786.34;4977917;28;20186;-56
2022/05/03 11:20:01;;;;;;;;;;;;;;;19.24;43.64;97778.56;4966783;28;19934;-55
2022/05/03 11:22:30;;;;;;;;;;;;;;;19.35;43.49;97779.50;4975867;28;20780;-56
2022/05/03 11:25:04;;;;;;;;;;;;;;;19.51;43.84;97773.81;4979916;28;19933;-56
2022/05/03 11:27:32;;;;;;;;;;;;;;;19.47;42.60;97777.69;4978735;28;19938;-58
2022/05/03 11:30:01;;;;;;;;;;;;;;;19.54;41.64;97777.75;4976201;28;19937;-58
2022/05/03 11:32:30;;;;;;;;;;;;;;;19.56;41.69;97773.47;4977285;28;19926;-57
2022/05/03 11:35:06;;;;;;;;;;;;;;;19.82;41.23;97767.16;4978958;28;20449;-57
2022/05/03 11:37:34;;;;;;;;;;;;;;;20.16;40.48;97769.88;4972852;28;19937;-57
2022/05/03 11:40:09;;;;;;;;;;;;;;;20.45;39.16;97759.13;4990896;28;20235;-58
2022/05/03 11:42:41;;;;;;;;;;;;;;;20.61;39.23;97757.75;4979542;28;19973;-58
2022/05/03 11:45:09;;;;;;;;;;;;;;;20.60;38.42;97760.88;4979202;28;19973;-58
2022/05/03 11:47:41;;;;;;;;;;;;;;;20.59;39.03;97762.06;4973930;28;20318;-58
2022/05/03 11:56:01;;;;;;;;;;;;;;;20.56;38.61;97754.50;4977469;28;19926;-57
2022/05/03 11:58:31;;;;;;;;;;;;;;;20.36;38.71;97751.19;4980509;28;19938;-57
2022/05/03 12:00:59;;;;;;;;;;;;;;;20.09;39.05;97754.06;4992204;28;19930;-57
2022/05/03 12:03:42;;;;;;;;;;;;;;;20.35;38.02;97750.38;4974356;28;20398;-57
2022/05/03 12:06:10;;;;;;;;;;;;;;;20.04;38.06;97745.34;4980242;28;20302;-57
2022/05/03 12:09:03;;;;;;;;;;;;;;;20.28;37.05;97750.28;4975909;28;20379;-55
2022/05/03 12:12:42;;;;;;;;;;;;;;;20.34;37.02;97748.78;4974330;28;20036;-57
2022/05/03 12:14:31;;;;;;;;;;;;;;;20.04;39.25;97756.38;4975903;28;20025;-57
2022/05/03 12:17:24;;;;;;;;;;;;;;;20.14;39.04;97750.16;4976582;28;19948;-57
2022/05/03 12:19:59;;;;;;;;;;;;;;;19.93;38.82;97750.72;4978915;28;19926;-55
2022/05/03 12:22:30;;;;;;;;;;;;;;;20.15;38.14;97743.47;4976030;28;19988;-58
2022/05/03 12:24:58;;;;;;;;;;;;;;;20.23;38.36;97742.38;4976495;28;20004;-57
2022/05/03 12:27:28;;;;;;;;;;;;;;;20.16;37.75;97745.06;4978689;28;20306;-58
2022/05/03 12:29:55;;;;;;;;;;;;;;;20.21;38.06;97739.19;4978692;28;20448;-57
2022/05/03 12:32:23;;;;;;;;;;;;;;;20.21;38.88;97743.94;4981557;28;20407;-57
2022/05/03 12:34:58;;;;;;;;;;;;;;;20.09;38.49;97750.50;4976964;28;19929;-57
2022/05/03 12:37:28;;;;;;;;;;;;;;;19.91;39.45;97736.50;4976881;28;20346;-58
2022/05/03 12:42:54;;;;;;;;;;;;;;;20.48;38.75;97730.81;4973396;28;19948;-57
2022/05/03 12:45:29;;;;;;;;;;;;;;;20.70;39.01;97735.31;4977890;28;19940;-55
2022/05/03 12:47:57;;;;;;;;;;;;;;;20.51;38.25;97730.06;4975072;28;19976;-58
2022/05/03 12:50:28;;;;;;;;;;;;;;;20.46;39.25;97738.66;4977398;28;20301;-58
2022/05/03 12:52:57;;;;;;;;;;;;;;;20.34;40.95;97740.50;4975410;28;19933;-57
2022/05/03 12:55:25;;;;;;;;;;;;;;;20.03;42.14;97743.75;4974602;28;19934;-59
2022/05/03 13:00:40;;;;;;;;;;;;;;;19.13;41.53;97754.78;4974891;28;19926;-59
2022/05/03 13:03:10;;;;;;;;;;;;;;;18.72;41.93;97757.28;4981179;28;19988;-58
2022/05/03 13:05:39;;;;;;;;;;;;;;;18.48;46.04;97766.66;4975799;28;20047;-57
2022/05/03 13:08:07;;;;;;;;;;;;;;;18.21;53.01;97766.59;4972999;28;20437;-58
2022/05/03 13:10:35;;;;;;;;;;;;;;;18.16;55.34;97766.09;4973551;28;20301;-57
2022/05/03 13:13:06;;;;;;;;;;;;;;;17.77;55.69;97775.19;4973299;28;19941;-57
2022/05/03 13:15:39;;;;;;;;;;;;;;;17.19;57.83;97793.50;4981497;28;19958;-58
2022/05/03 13:18:07;;;;;;;;;;;;;;;15.27;55.78;97786.41;4975012;28;19926;-54
2022/05/03 13:20:35;;;;;;;;;;;;;;;14.78;57.49;97783.69;4974708;28;19949;-57
2022/05/03 13:23:03;;;;;;;;;;;;;;;14.61;57.59;97777.31;4974401;28;20000;-57
2022/05/03 13:25:30;;;;;;;;;;;;;;;14.53;55.83;97761.81;4973985;28;19977;-53
2022/05/03 13:27:58;;;;;;;;;;;;;;;14.79;62.18;97756.00;4972893;28;19945;-56
2022/05/03 13:30:28;;;;;;;;;;;;;;;14.92;62.37;97748.59;4974092;28;19999;-56
2022/05/03 13:32:55;;;;;;;;;;;;;;;15.35;65.14;97749.91;4975859;28;19950;-56
2022/05/03 13:41:02;;;;;;;;;;;;;;;16.04;63.15;97742.47;4975931;28;20517;-57
2022/05/03 13:43:30;;;;;;;;;;;;;;;16.26;63.48;97749.28;4980760;28;20400;-57
2022/05/03 13:45:59;;;;;;;;;;;;;;;16.43;63.63;97743.47;4974618;28;19933;-57
2022/05/03 13:48:27;;;;;;;;;;;;;;;16.56;63.00;97747.69;4972756;28;19930;-57
2022/05/03 13:50:56;;;;;;;;;;;;;;;16.67;62.86;97746.03;4978968;28;19926;-57
2022/05/03 13:53:25;;;;;;;;;;;;;;;16.57;60.89;97748.53;4973592;28;19926;-57
2022/05/03 13:55:53;;;;;;;;;;;;;;;16.60;62.99;97754.06;4973219;28;20279;-48
2022/05/03 13:58:21;;;;;;;;;;;;;;;16.67;63.16;97747.94;4973318;28;20292;-51
2022/05/03 14:00:49;;;;;;;;;;;;;;;16.76;64.15;97754.88;4975901;28;19932;-53
2022/05/03 14:06:10;;;;;;;;;;;;;;;17.15;63.66;97756.94;4972293;28;19973;-56
2022/05/03 14:09:03;;;;;;;;;;;;;;;17.21;63.66;97752.78;4973752;28;20743;-56
2022/05/03 14:11:32;;;;;;;;;;;;;;;17.21;63.81;97753.56;4976688;28;19930;-52
2022/05/03 14:13:59;;;;;;;;;;;;;;;17.35;64.46;97755.03;4973344;28;20286;-57